Time;durP1;ratioP1;P1;durP2;ratioP2;P2;SDS_P1;SDS_P2;PMS_P1;PMS_P2;Temp;Humidity;BMP_temperature;BMP_pressure;BME280_temperature;BME280_humidity;BME280_pressure;Samples;Min_cycle;Max_cycle;Signal;HPM_P1;HPM_P2
2022/09/22 00:01:27;;;;;;;8.73;3.60;;;;;;;9.20;89.58;101385.12;1717240;82;21062;-83
2022/09/22 00:03:59;;;;;;;5.03;3.63;;;;;;;9.15;89.59;101379.98;1726278;81;21516;-83
2022/09/22 00:06:32;;;;;;;5.57;3.67;;;;;;;9.12;89.77;101385.27;1731848;82;21029;-83
2022/09/22 00:09:01;;;;;;;5.73;3.13;;;;;;;9.13;90.15;101386.53;1731968;82;21027;-83
2022/09/22 00:11:34;;;;;;;6.43;3.20;;;;;;;9.11;89.96;101388.74;1711132;82;22414;-83
2022/09/22 00:14:15;;;;;;;5.60;3.40;;;;;;;9.07;89.83;101391.86;1730258;82;21012;-83
2022/09/22 00:16:54;;;;;;;;;;;;;;;9.02;89.87;101394.98;1728608;83;21115;-84
2022/09/22 00:19:29;;;;;;;6.57;3.37;;;;;;;8.98;89.99;101386.77;1705255;82;20147;-83
2022/09/22 00:21:56;;;;;;;6.60;3.00;;;;;;;8.93;89.98;101385.52;1726349;83;21040;-84
2022/09/22 00:24:25;;;;;;;6.60;3.77;;;;;;;8.90;90.04;101385.56;1726161;83;21095;-83
2022/09/22 00:26:56;;;;;;;5.57;3.40;;;;;;;8.85;89.91;101380.84;1726165;83;21079;-83
2022/09/22 00:29:27;;;;;;;5.00;3.33;;;;;;;8.78;89.87;101383.11;1726232;83;20988;-83
2022/09/22 00:31:55;;;;;;;6.37;3.23;;;;;;;8.71;89.94;101379.73;1726224;82;21016;-83
2022/09/22 00:34:26;;;;;;;4.67;2.97;;;;;;;8.65;89.98;101379.82;1726296;83;21521;-83
2022/09/22 00:36:53;;;;;;;5.47;3.10;;;;;;;8.62;90.08;101380.31;1726328;83;21509;-84
2022/09/22 00:39:20;;;;;;;4.83;3.13;;;;;;;8.57;90.22;101373.83;1726223;83;21604;-83
2022/09/22 00:41:51;;;;;;;4.57;3.10;;;;;;;8.54;90.35;101373.88;1726319;83;21064;-83
2022/09/22 00:44:27;;;;;;;;;;;;;;;8.52;90.58;101373.02;1729032;83;20944;-84
2022/09/22 00:47:00;;;;;;;4.43;3.17;;;;;;;8.50;90.68;101370.86;1706772;83;20577;-84
2022/09/22 00:49:35;;;;;;;7.43;3.50;;;;;;;8.46;90.50;101365.27;1726335;83;21936;-84
2022/09/22 00:52:02;;;;;;;4.90;2.90;;;;;;;8.41;90.44;101367.06;1678147;82;21088;-83
2022/09/22 00:54:30;;;;;;;4.57;3.10;;;;;;;8.38;90.62;101374.47;1726266;83;21060;-84
2022/09/22 00:57:03;;;;;;;5.37;3.30;;;;;;;8.37;90.73;101375.36;1726647;82;21000;-84
2022/09/22 00:59:30;;;;;;;8.70;3.30;;;;;;;8.35;90.73;101374.95;1726018;82;21020;-83
2022/09/22 01:01:57;;;;;;;5.70;3.50;;;;;;;8.34;90.72;101373.20;1706051;83;21096;-83
2022/09/22 01:04:24;;;;;;;6.87;3.37;;;;;;;8.31;90.78;101370.19;1726126;83;21067;-84
2022/09/22 01:06:53;;;;;;;4.97;3.30;;;;;;;8.32;91.14;101369.33;1726583;83;21502;-83
2022/09/22 01:09:20;;;;;;;7.40;3.87;;;;;;;8.34;91.42;101375.81;1726240;82;21031;-84
2022/09/22 01:11:47;;;;;;;5.07;3.53;;;;;;;8.39;91.93;101374.91;1726497;82;21028;-83
2022/09/22 01:14:47;;;;;;;4.77;3.20;;;;;;;8.40;91.35;101376.66;1727964;80;21129;-84
2022/09/22 01:17:40;;;;;;;5.55;3.05;;;;;;;8.36;91.09;101381.89;1692542;84;26796;-84
2022/09/22 01:20:48;;;;;;;5.77;3.67;;;;;;;8.31;91.08;101392.39;1692816;83;21027;-84
2022/09/22 01:23:53;;;;;;;5.40;3.37;;;;;;;8.27;90.87;101388.09;1729564;82;21478;-84
2022/09/22 01:26:56;;;;;;;8.30;4.13;;;;;;;8.20;91.02;101386.42;1734844;82;21035;-83
2022/09/22 01:29:43;;;;;;;7.27;3.30;;;;;;;8.14;90.96;101384.75;1699207;84;21228;-84
2022/09/22 01:32:28;;;;;;;6.27;4.17;;;;;;;8.08;91.16;101383.97;1671268;84;21048;-83
2022/09/22 01:35:21;;;;;;;5.80;3.80;;;;;;;8.04;91.25;101384.00;1699099;84;21024;-83
2022/09/22 01:38:13;;;;;;;6.43;3.73;;;;;;;8.02;91.59;101379.67;1699461;84;21009;-84
2022/09/22 01:40:50;;;;;;;6.57;3.90;;;;;;;8.01;91.57;101382.73;1699091;84;21099;-83
2022/09/22 01:43:50;;;;;;;6.30;3.47;;;;;;;7.96;91.35;101379.75;1699372;84;21095;-83
2022/09/22 01:46:31;;;;;;;5.10;3.25;;;;;;;7.89;91.25;101373.70;1699172;84;21048;-84
2022/09/22 01:49:01;;;;;;;6.33;3.20;;;;;;;7.81;91.25;101369.90;1698986;84;21064;-83
2022/09/22 01:51:49;;;;;;;6.22;3.60;;;;;;;7.76;91.35;101370.80;1699628;84;21080;-83
2022/09/22 01:54:22;;;;;;;5.30;3.90;;;;;;;7.73;91.61;101374.73;1699229;84;22129;-83
2022/09/22 01:56:55;;;;;;;6.70;3.83;;;;;;;7.71;91.65;101370.00;1698681;84;21136;-83
2022/09/22 01:59:27;;;;;;;6.10;3.50;;;;;;;7.69;91.77;101366.53;1699037;84;21096;-83
2022/09/22 02:02:02;;;;;;;6.37;3.47;;;;;;;7.68;91.91;101360.45;1679549;84;21040;-83
2022/09/22 02:04:40;;;;;;;8.47;3.87;;;;;;;7.71;92.56;101349.13;1699098;84;21024;-83
2022/09/22 02:07:21;;;;;;;4.57;3.33;;;;;;;7.78;93.00;101346.41;1699415;84;21030;-83
2022/09/22 02:09:50;;;;;;;4.63;3.07;;;;;;;7.78;92.26;101345.11;1698598;84;21805;-83
2022/09/22 02:12:17;;;;;;;5.80;3.67;;;;;;;7.70;91.51;101349.53;1699007;84;21025;-83
2022/09/22 02:14:46;;;;;;;4.67;3.17;;;;;;;7.67;91.66;101348.71;1703989;83;21955;-83
2022/09/22 02:17:14;;;;;;;6.50;3.53;;;;;;;7.66;91.91;101341.33;1715559;83;21036;-83
2022/09/22 02:19:42;;;;;;;7.33;3.73;;;;;;;7.69;92.30;101344.35;1715621;82;21002;-83
2022/09/22 02:22:10;;;;;;;5.70;3.77;;;;;;;7.67;92.15;101337.83;1715789;83;21121;-83
2022/09/22 02:24:44;;;;;;;6.57;3.63;;;;;;;7.68;92.15;101349.16;1715564;83;21056;-83
2022/09/22 02:27:34;;;;;;;6.13;3.10;;;;;;;7.66;92.08;101352.21;1715570;83;21009;-83
2022/09/22 02:30:07;;;;;;;6.73;3.73;;;;;;;7.64;92.00;101353.52;1714527;82;21029;-84
2022/09/22 02:32:37;;;;;;;4.37;3.10;;;;;;;7.60;92.03;101350.53;1715480;83;21500;-84
2022/09/22 02:35:06;;;;;;;5.83;3.30;;;;;;;7.58;91.95;101353.58;1713845;83;27620;-83
2022/09/22 02:37:54;;;;;;;4.40;3.37;;;;;;;7.54;91.90;101353.20;1715293;83;21013;-83
2022/09/22 02:40:48;;;;;;;5.20;3.10;;;;;;;7.47;91.79;101351.07;1695390;83;21032;-83
2022/09/22 02:43:41;;;;;;;7.93;3.50;;;;;;;7.42;91.84;101348.08;1695456;82;21037;-83
2022/09/22 02:46:25;;;;;;;5.23;3.30;;;;;;;7.37;91.97;101353.32;1715499;83;21041;-83
2022/09/22 02:49:02;;;;;;;6.83;3.60;;;;;;;7.31;91.98;101354.69;1715646;83;21091;-83
2022/09/22 02:51:30;;;;;;;7.10;3.30;;;;;;;7.27;92.10;101353.00;1695449;83;21036;-83
2022/09/22 02:53:58;;;;;;;5.07;3.90;;;;;;;7.23;92.20;101354.73;1684478;83;21033;-83
2022/09/22 02:56:25;;;;;;;5.47;3.83;;;;;;;7.19;92.05;101351.74;1715753;83;21013;-83
2022/09/22 02:58:52;;;;;;;5.60;3.17;;;;;;;7.11;91.95;101355.70;1716149;83;21032;-82
2022/09/22 03:01:19;;;;;;;6.83;3.43;;;;;;;7.07;92.07;101357.92;1715704;83;21207;-84
2022/09/22 03:03:46;;;;;;;4.97;3.60;;;;;;;7.01;92.12;101355.37;1715941;83;21009;-84
2022/09/22 03:06:13;;;;;;;6.43;3.57;;;;;;;6.98;92.20;101354.50;1715669;83;21032;-83
2022/09/22 03:08:40;;;;;;;6.20;3.60;;;;;;;6.95;92.35;101357.99;1695550;83;21080;-83
2022/09/22 03:11:07;;;;;;;6.60;4.07;;;;;;;6.93;92.50;101358.47;1715725;83;21065;-84
2022/09/22 03:13:34;;;;;;;6.57;3.63;;;;;;;6.92;92.67;101357.58;1715977;83;21344;-83
2022/09/22 03:16:01;;;;;;;7.47;3.70;;;;;;;6.93;92.71;101355.86;1715536;83;21028;-83
2022/09/22 03:18:28;;;;;;;7.00;4.10;;;;;;;6.90;92.59;101354.55;1715999;83;21020;-83
2022/09/22 03:20:55;;;;;;;6.90;3.57;;;;;;;6.84;92.52;101348.94;1715627;83;21472;-83
2022/09/22 03:23:22;;;;;;;6.07;3.63;;;;;;;6.79;92.54;101344.63;1716026;83;21028;-83
2022/09/22 03:25:49;;;;;;;5.90;3.97;;;;;;;6.76;92.65;101346.84;1715631;83;21129;-83
2022/09/22 03:28:16;;;;;;;7.47;3.77;;;;;;;6.75;92.83;101351.61;1715938;83;21009;-84
2022/09/22 03:30:44;;;;;;;5.40;3.83;;;;;;;6.76;93.26;101355.97;1715732;83;21479;-82
2022/09/22 03:33:10;;;;;;;5.57;3.70;;;;;;;6.84;93.69;101354.59;1715986;83;21017;-83
2022/09/22 03:35:37;;;;;;;6.63;4.00;;;;;;;6.85;93.42;101361.55;1715650;83;21479;-84
2022/09/22 03:38:05;;;;;;;6.83;4.10;;;;;;;6.84;93.16;101363.72;1715995;83;21115;-84
2022/09/22 03:40:32;;;;;;;9.97;4.43;;;;;;;6.81;93.17;101362.44;1715597;83;21059;-83
2022/09/22 03:42:59;;;;;;;6.03;3.70;;;;;;;6.82;93.27;101358.53;1695317;83;21040;-83
2022/09/22 03:45:26;;;;;;;4.73;3.53;;;;;;;6.81;93.19;101363.73;1715995;83;21009;-84
2022/09/22 03:47:53;;;;;;;5.63;3.67;;;;;;;6.77;93.09;101362.04;1715671;83;21522;-83
2022/09/22 03:50:21;;;;;;;7.90;3.30;;;;;;;6.76;93.22;101366.39;1715922;83;21210;-83
2022/09/22 03:52:48;;;;;;;7.13;3.83;;;;;;;6.79;93.81;101362.46;1715604;83;21518;-83
2022/09/22 03:55:15;;;;;;;6.57;4.20;;;;;;;6.87;94.26;101365.89;1715976;83;21048;-83
2022/09/22 03:57:42;;;;;;;6.67;4.30;;;;;;;6.97;94.70;101369.28;1715640;83;21044;-84
2022/09/22 04:00:11;;;;;;;6.53;3.90;;;;;;;7.01;94.35;101367.09;1715907;83;21049;-83
2022/09/22 04:02:40;;;;;;;4.93;3.60;;;;;;;7.01;93.82;101361.89;1715722;83;21156;-83
2022/09/22 04:05:09;;;;;;;7.13;3.93;;;;;;;7.00;93.61;101366.66;1715917;83;21001;-83
2022/09/22 04:07:36;;;;;;;5.43;3.70;;;;;;;6.98;93.30;101366.23;1715694;83;21017;-83
2022/09/22 04:10:04;;;;;;;10.97;4.10;;;;;;;6.93;93.10;101363.67;1715817;83;21085;-83
2022/09/22 04:12:31;;;;;;;6.17;3.40;;;;;;;6.92;93.63;101366.70;1715780;83;21174;-83
2022/09/22 04:14:58;;;;;;;6.40;3.80;;;;;;;6.96;93.93;101379.29;1715905;83;21696;-84
2022/09/22 04:17:25;;;;;;;7.10;4.40;;;;;;;6.99;93.85;101380.58;1715679;83;20934;-83
2022/09/22 04:19:54;;;;;;;6.20;3.93;;;;;;;6.99;93.61;101375.80;1715917;83;21061;-83
2022/09/22 04:22:20;;;;;;;5.80;4.20;;;;;;;6.97;93.42;101372.33;1715668;83;21040;-83
2022/09/22 04:24:48;;;;;;;5.80;3.60;;;;;;;6.91;93.17;101373.23;1715992;83;21546;-84
2022/09/22 04:27:15;;;;;;;5.13;3.67;;;;;;;6.86;93.13;101374.56;1715593;83;21210;-83
2022/09/22 04:29:42;;;;;;;5.67;3.83;;;;;;;6.84;93.19;101372.39;1715953;83;20917;-84
2022/09/22 04:32:09;;;;;;;5.83;3.63;;;;;;;6.80;93.17;101378.95;1715650;83;21482;-83
2022/09/22 04:34:36;;;;;;;7.90;4.33;;;;;;;6.78;93.31;101377.64;1716035;83;21005;-83
2022/09/22 04:37:03;;;;;;;6.07;4.23;;;;;;;6.77;93.34;101377.67;1693722;82;21052;-83
2022/09/22 04:39:30;;;;;;;5.07;3.73;;;;;;;6.75;93.44;101381.58;1710310;82;21036;-83
2022/09/22 04:41:57;;;;;;;6.70;4.20;;;;;;;6.70;93.36;101388.11;1706564;83;21019;-83
2022/09/22 04:44:24;;;;;;;6.60;4.70;;;;;;;6.67;93.50;101388.56;1696248;83;21489;-84
2022/09/22 04:46:51;;;;;;;10.67;4.40;;;;;;;6.66;93.65;101388.15;1695012;83;21055;-84
2022/09/22 04:49:18;;;;;;;5.90;3.97;;;;;;;6.66;93.83;101379.03;1704055;83;21031;-84
2022/09/22 04:51:45;;;;;;;8.20;4.83;;;;;;;6.66;93.82;101380.33;1694798;83;21888;-84
2022/09/22 04:54:15;;;;;;;7.23;5.10;;;;;;;6.65;93.73;101386.39;1706034;83;21047;-84
2022/09/22 04:56:42;;;;;;;9.20;4.87;;;;;;;6.61;93.70;101384.70;1696486;83;21099;-84
2022/09/22 04:59:09;;;;;;;7.60;4.70;;;;;;;6.60;93.72;101392.09;1707931;83;21024;-84
2022/09/22 05:01:36;;;;;;;8.83;5.10;;;;;;;6.57;93.75;101389.47;1699001;83;21535;-84
2022/09/22 05:04:04;;;;;;;6.87;4.03;;;;;;;6.55;93.85;101389.50;1709830;83;21532;-84
2022/09/22 05:06:31;;;;;;;7.00;4.90;;;;;;;6.55;93.98;101388.20;1720083;83;20940;-84
2022/09/22 05:08:58;;;;;;;7.23;4.83;;;;;;;6.54;94.01;101391.69;1708916;83;21099;-84
2022/09/22 05:11:25;;;;;;;8.80;4.70;;;;;;;6.54;94.12;101397.30;1703587;83;21084;-84
2022/09/22 05:13:52;;;;;;;5.77;4.17;;;;;;;6.53;94.12;101389.08;1694252;84;21105;-84
2022/09/22 05:16:19;;;;;;;8.03;5.40;;;;;;;6.53;94.27;101395.14;1697616;82;21159;-84
2022/09/22 05:18:48;;;;;;;8.50;5.13;;;;;;;6.56;94.48;101392.96;1702418;82;20956;-81
2022/09/22 05:21:16;;;;;;;9.70;5.33;;;;;;;6.58;94.49;101396.44;1713251;82;21050;-82
2022/09/22 05:23:44;;;;;;;7.70;4.90;;;;;;;6.56;94.37;101389.91;1703884;82;21098;-82
2022/09/22 05:26:11;;;;;;;5.87;4.20;;;;;;;6.56;94.40;101387.31;1725134;82;21513;-85
2022/09/22 05:28:39;;;;;;;7.47;4.37;;;;;;;6.57;94.53;101388.17;1726799;82;21817;-82
2022/09/22 05:31:06;;;;;;;8.07;5.10;;;;;;;6.58;94.56;101392.09;1717229;82;21563;-88
2022/09/22 05:33:34;;;;;;;7.53;4.80;;;;;;;6.59;94.63;101394.25;1715563;82;21016;-89
2022/09/22 05:36:01;;;;;;;7.77;4.80;;;;;;;6.62;94.86;101391.62;1713861;82;21086;-88
2022/09/22 05:38:28;;;;;;;7.33;5.20;;;;;;;6.66;95.06;101398.57;1708711;82;21778;-90
2022/09/22 05:40:56;;;;;;;6.33;4.63;;;;;;;6.69;95.22;101400.71;1705587;82;21144;-84
2022/09/22 05:43:23;;;;;;;6.77;5.10;;;;;;;6.75;95.26;101408.08;1718469;82;21027;-84
2022/09/22 05:45:50;;;;;;;7.93;5.17;;;;;;;6.78;95.29;101407.61;1707713;82;21461;-85
2022/09/22 05:48:17;;;;;;;7.70;5.07;;;;;;;6.80;95.33;101401.97;1700641;82;20959;-85
2022/09/22 05:50:44;;;;;;;7.50;5.40;;;;;;;6.85;95.46;101406.72;1711679;82;21301;-84
2022/09/22 05:53:13;;;;;;;8.80;5.27;;;;;;;6.89;95.52;101403.20;1703910;82;21129;-83
2022/09/22 05:55:40;;;;;;;8.23;4.93;;;;;;;6.96;95.68;101403.20;1688344;83;21042;-82
2022/09/22 05:58:12;;;;;;;7.17;4.93;;;;;;;7.00;95.72;101408.36;1716106;82;21035;-83
2022/09/22 06:00:40;;;;;;;7.50;5.43;;;;;;;7.06;95.97;101407.01;1715460;82;21035;-82
2022/09/22 06:03:07;;;;;;;8.00;5.50;;;;;;;7.15;96.12;101409.58;1714693;82;21438;-84
2022/09/22 06:05:34;;;;;;;7.67;5.40;;;;;;;7.21;96.16;101407.36;1718394;82;21175;-82
2022/09/22 06:08:05;;;;;;;7.03;5.50;;;;;;;7.28;96.15;101406.87;1716105;82;21453;-87
2022/09/22 06:10:35;;;;;;;6.85;5.78;;;;;;;7.33;96.24;101412.48;1714237;81;21043;-88
2022/09/22 06:13:06;;;;;;;9.03;5.47;;;;;;;7.41;96.19;101406.35;1712983;81;21492;-89
2022/09/22 06:15:35;;;;;;;8.15;5.35;;;;;;;7.49;96.31;101411.06;1712914;82;21058;-87
2022/09/22 06:18:06;;;;;;;9.23;5.80;;;;;;;7.53;96.26;101414.92;1717944;82;21282;-86
2022/09/22 06:20:34;;;;;;;8.33;6.00;;;;;;;7.59;96.27;101417.50;1713152;82;22165;-86
2022/09/22 06:23:01;;;;;;;8.40;5.53;;;;;;;7.65;96.20;101410.47;1711569;82;21119;-86
2022/09/22 06:25:30;;;;;;;8.83;5.63;;;;;;;7.69;96.20;101407.84;1714173;81;21051;-88
2022/09/22 06:28:03;;;;;;;9.07;5.43;;;;;;;7.73;96.27;101406.95;1714596;81;21019;-86
2022/09/22 06:30:30;;;;;;;8.13;5.60;;;;;;;7.77;96.14;101407.77;1717913;82;21173;-87
2022/09/22 06:32:58;;;;;;;8.00;5.30;;;;;;;7.82;96.33;101416.44;1712493;82;21046;-84
2022/09/22 06:35:29;;;;;;;7.20;5.00;;;;;;;7.87;96.27;101410.73;1715027;82;21142;-86
2022/09/22 06:37:58;;;;;;;7.83;4.70;;;;;;;7.93;96.33;101413.28;1711617;82;21432;-86
2022/09/22 06:40:26;;;;;;;6.10;4.87;;;;;;;7.98;96.49;101414.09;1720898;82;21788;-84
2022/09/22 06:43:09;;;;;;;7.10;5.03;;;;;;;8.05;96.50;101410.53;1713403;82;21149;-86
2022/09/22 06:45:33;;;;;;;7.27;5.23;;;;;;;8.11;96.57;101410.91;1717895;82;21583;-84
2022/09/22 06:48:01;;;;;;;6.23;4.90;;;;;;;8.20;96.82;101410.83;1716498;82;21055;-85
2022/09/22 06:50:31;;;;;;;7.85;4.67;;;;;;;8.26;96.75;101417.28;1714026;82;21435;-87
2022/09/22 06:53:10;;;;;;;8.23;5.10;;;;;;;8.33;96.71;101420.67;1709847;81;21039;-87
2022/09/22 06:55:34;;;;;;;8.70;4.67;;;;;;;8.40;96.83;101417.16;1715031;82;21081;-88
2022/09/22 06:58:01;;;;;;;5.83;4.20;;;;;;;8.46;96.62;101419.69;1709282;82;21115;-87
2022/09/22 07:00:31;;;;;;;7.30;4.33;;;;;;;8.54;96.70;101422.66;1719621;82;22340;-85
2022/09/22 07:03:08;;;;;;;6.62;4.37;;;;;;;8.61;96.73;101422.54;1713190;82;21035;-89
2022/09/22 07:05:36;;;;;;;7.17;4.20;;;;;;;8.71;96.80;101428.53;1702799;82;21044;-89
2022/09/22 07:08:07;;;;;;;7.77;3.97;;;;;;;8.78;96.70;101423.63;1702065;82;21281;-89
2022/09/22 07:10:37;;;;;;;;;;;;;;;8.87;96.50;101429.20;1719340;82;21082;-90
2022/09/22 07:13:05;;;;;;;7.47;3.98;;;;;;;8.99;96.51;101426.41;1702507;82;20153;-90
2022/09/22 07:15:34;;;;;;;5.67;4.03;;;;;;;8.99;96.51;101426.41;1703097;82;21066;-90
2022/09/22 07:18:03;;;;;;;7.33;3.70;;;;;;;9.08;96.55;101428.88;1697222;82;21027;-87
2022/09/22 07:20:32;;;;;;;5.90;3.40;;;;;;;9.15;96.41;101435.77;1710350;83;22055;-89
2022/09/22 07:22:59;;;;;;;6.67;3.37;;;;;;;9.23;96.38;101434.35;1696880;83;21059;-89
2022/09/22 07:25:34;;;;;;;4.23;3.07;;;;;;;9.29;96.17;101433.39;1698830;83;21489;-90
2022/09/22 07:28:05;;;;;;;4.63;2.93;;;;;;;9.37;96.45;101432.38;1708327;81;21528;-82
2022/09/22 07:30:31;;;;;;;4.27;2.73;;;;;;;9.48;96.31;101436.59;1704162;83;21066;-88
2022/09/22 07:33:00;;;;;;;2.90;2.37;;;;;;;9.53;95.95;101438.25;1696654;83;21114;-84
2022/09/22 07:35:27;;;;;;;3.90;2.83;;;;;;;9.59;95.71;101443.83;1696690;83;20943;-91
2022/09/22 07:38:02;;;;;;;4.80;2.73;;;;;;;9.67;95.62;101444.98;1691711;83;21043;-87
2022/09/22 07:40:26;;;;;;;4.07;2.80;;;;;;;9.72;95.64;101440.09;1700413;81;20995;-86
2022/09/22 07:42:52;;;;;;;5.20;3.10;;;;;;;9.80;95.54;101435.59;1701287;83;21504;-85
2022/09/22 07:45:20;;;;;;;4.47;2.83;;;;;;;9.90;95.64;101438.07;1701718;83;21121;-82
2022/09/22 07:50:33;;;;;;;4.13;2.50;;;;;;;10.08;95.57;101444.72;1713457;83;21030;-91
2022/09/22 07:53:00;;;;;;;4.33;2.80;;;;;;;10.16;95.25;101442.83;1711736;81;21050;-87
2022/09/22 07:55:27;;;;;;;3.63;2.67;;;;;;;10.24;95.14;101434.38;1717692;81;20995;-91
2022/09/22 07:57:57;;;;;;;4.17;2.40;;;;;;;10.31;95.26;101431.20;1702036;83;21172;-89
2022/09/22 08:00:27;;;;;;;5.58;2.58;;;;;;;10.38;95.15;101433.69;1696894;83;21035;-89
2022/09/22 08:02:56;;;;;;;;;;;;;;;10.46;94.91;101434.41;1699599;83;21035;-90
2022/09/22 08:05:26;;;;;;;3.17;1.97;;;;;;;10.53;94.72;101432.54;1696848;81;20149;-85
2022/09/22 08:08:01;;;;;;;2.67;1.80;;;;;;;10.61;95.04;101427.97;1706715;83;21027;-90
2022/09/22 08:10:25;;;;;;;4.42;2.25;;;;;;;10.75;95.14;101425.52;1697537;81;21138;-90
2022/09/22 08:12:56;;;;;;;3.72;1.98;;;;;;;10.89;95.20;101430.89;1698635;83;20996;-83
2022/09/22 08:15:26;;;;;;;3.12;2.10;;;;;;;11.05;95.04;101431.84;1710495;83;21648;-89
2022/09/22 08:17:58;;;;;;;2.75;1.70;;;;;;;11.20;94.83;101428.89;1706267;83;21027;-87
2022/09/22 08:20:27;;;;;;;2.45;1.65;;;;;;;11.33;94.76;101430.77;1715301;83;21043;-82
2022/09/22 08:22:56;;;;;;;2.17;1.32;;;;;;;11.49;94.82;101433.89;1704335;83;21142;-81
2022/09/22 08:25:24;;;;;;;2.52;1.40;;;;;;;11.60;93.98;101424.84;1697101;83;21015;-86
2022/09/22 08:27:52;;;;;;;2.72;1.60;;;;;;;11.70;93.37;101432.05;1696955;83;21072;-81
2022/09/22 08:30:19;;;;;;;1.62;1.15;;;;;;;11.82;93.46;101428.25;1697173;81;21032;-83
2022/09/22 08:32:46;;;;;;;3.98;1.70;;;;;;;11.95;93.06;101426.20;1697450;83;21008;-81
2022/09/22 08:35:13;;;;;;;4.30;1.77;;;;;;;12.08;92.99;101431.52;1697150;81;21108;-84
2022/09/22 08:37:42;;;;;;;2.45;1.60;;;;;;;12.22;92.48;101429.41;1700478;83;21047;-82
2022/09/22 08:40:17;;;;;;;3.05;1.30;;;;;;;12.35;92.28;101431.22;1726415;82;20996;-84
2022/09/22 08:42:45;;;;;;;1.98;1.47;;;;;;;12.45;91.88;101427.44;1705240;82;21036;-82
2022/09/22 08:45:32;;;;;;;2.12;1.37;;;;;;;12.56;91.60;101424.97;1714385;83;21028;-85
2022/09/22 08:53:50;;;;;;;4.45;1.32;;;;;;;13.04;91.07;101423.08;1724680;83;21512;-87
2022/09/22 08:56:43;;;;;;;3.02;1.50;;;;;;;13.19;90.63;101429.20;1711803;83;21027;-81
2022/09/22 08:59:25;;;;;;;3.15;1.20;;;;;;;13.31;90.29;101430.15;1697517;83;21035;-82
2022/09/22 09:02:14;;;;;;;2.12;1.35;;;;;;;13.44;89.61;101430.63;1691458;83;21149;-80
2022/09/22 09:04:58;;;;;;;2.77;1.62;;;;;;;13.51;88.93;101429.50;1697323;83;20955;-81
2022/09/22 09:07:59;;;;;;;3.17;1.70;;;;;;;13.57;88.30;101423.16;1697303;83;20989;-87
2022/09/22 09:10:34;;;;;;;2.17;1.35;;;;;;;13.63;88.03;101426.91;1697565;81;20993;-85
2022/09/22 09:13:26;;;;;;;2.08;1.20;;;;;;;13.69;87.59;101420.56;1697299;83;21479;-81
2022/09/22 09:16:31;;;;;;;1.82;1.27;;;;;;;13.79;87.77;101422.84;1697505;81;21543;-81
2022/09/22 09:19:19;;;;;;;2.35;1.40;;;;;;;13.95;87.66;101422.33;1697255;83;21637;-81
2022/09/22 09:21:51;;;;;;;2.30;1.67;;;;;;;14.09;87.13;101425.34;1697714;82;21039;-87
2022/09/22 09:24:35;;;;;;;2.77;1.70;;;;;;;14.12;86.37;101429.64;1697186;83;21016;-85
2022/09/22 09:27:13;;;;;;;2.20;1.40;;;;;;;14.14;85.70;101424.72;1697242;83;21615;-84
2022/09/22 09:29:57;;;;;;;3.65;1.40;;;;;;;14.20;85.47;101426.28;1697076;83;22046;-81
2022/09/22 09:32:58;;;;;;;4.60;1.60;;;;;;;14.25;85.33;101432.25;1697213;83;21019;-83
2022/09/22 09:35:52;;;;;;;3.30;1.70;;;;;;;14.24;84.79;101426.55;1697076;83;21031;-84
2022/09/22 09:38:34;;;;;;;4.17;1.90;;;;;;;14.27;84.58;101418.53;1697221;83;21027;-83
2022/09/22 09:41:15;;;;;;;1.82;1.45;;;;;;;14.42;84.21;101419.31;1697126;83;20996;-81
2022/09/22 09:43:44;;;;;;;3.80;1.32;;;;;;;14.56;84.45;101415.34;1711660;83;21149;-82
2022/09/22 09:46:41;;;;;;;5.62;3.35;;;;;;;14.62;83.82;101421.23;1726415;82;21028;-82
2022/09/22 09:49:17;;;;;;;1.60;1.17;;;;;;;14.66;83.17;101418.89;1726341;83;21374;-81
2022/09/22 09:51:58;;;;;;;1.05;0.72;;;;;;;14.82;82.86;101410.37;1726490;83;21024;-83
2022/09/22 09:54:26;;;;;;;2.50;1.60;;;;;;;15.09;83.07;101420.33;1726298;83;21299;-82
2022/09/22 09:57:15;;;;;;;5.80;4.00;;;;;;;15.26;82.12;101419.19;1726638;82;21758;-87
2022/09/22 10:02:52;;;;;;;1.75;1.40;;;;;;;15.46;80.57;101414.87;1726279;83;21078;-82
2022/09/22 10:05:25;;;;;;;5.97;5.37;;;;;;;15.54;80.23;101413.63;1724958;82;21071;-82
2022/09/22 10:07:59;;;;;;;3.98;3.58;;;;;;;15.69;80.09;101408.21;1726459;82;21071;-82
2022/09/22 10:10:34;;;;;;;3.67;1.80;;;;;;;15.84;79.82;101411.51;1726101;82;22079;-89
2022/09/22 10:13:09;;;;;;;1.50;0.80;;;;;;;16.11;80.09;101403.78;1726412;82;21023;-81
2022/09/22 10:15:39;;;;;;;1.98;0.88;;;;;;;16.44;79.71;101410.20;1706681;83;21043;-83
2022/09/22 10:18:38;;;;;;;2.20;1.12;;;;;;;16.67;78.70;101410.93;1726310;82;21022;-82
2022/09/22 10:21:16;;;;;;;1.87;0.95;;;;;;;16.68;77.99;101411.31;1726375;82;21018;-82
2022/09/22 10:23:48;;;;;;;3.85;1.32;;;;;;;16.47;76.75;101406.09;1726163;83;21089;-89
2022/09/22 10:26:29;;;;;;;3.08;1.27;;;;;;;16.24;75.88;101407.61;1726083;82;21048;-82
2022/09/22 10:29:17;;;;;;;3.08;1.52;;;;;;;16.25;75.62;101408.84;1726414;82;21020;-88
2022/09/22 10:32:14;;;;;;;1.85;1.02;;;;;;;16.36;75.51;101399.11;1726232;82;21009;-82
2022/09/22 10:34:48;;;;;;;3.73;1.27;;;;;;;16.52;75.35;101396.63;1711195;83;21031;-81
2022/09/22 10:37:20;;;;;;;1.85;1.35;;;;;;;16.76;75.24;101397.25;1726171;83;21042;-85
2022/09/22 10:39:59;;;;;;;3.10;1.10;;;;;;;17.03;75.04;101394.27;1725937;82;21474;-88
2022/09/22 10:42:45;;;;;;;1.22;0.80;;;;;;;17.22;74.86;101399.07;1705585;82;21008;-82
2022/09/22 10:45:13;;;;;;;1.32;0.85;;;;;;;17.39;74.20;101399.09;1707987;83;21028;-81
2022/09/22 10:48:00;;;;;;;1.47;0.60;;;;;;;17.31;73.21;101400.41;1726199;82;21517;-83
2022/09/22 10:51:00;;;;;;;0.90;0.50;;;;;;;17.35;72.48;101401.98;1722851;82;21952;-83
2022/09/22 10:53:49;;;;;;;1.30;0.40;;;;;;;17.49;72.12;101392.02;1726443;82;21490;-83
2022/09/22 10:56:42;;;;;;;1.75;0.55;;;;;;;17.66;71.00;101388.52;1725536;82;20993;-84
2022/09/22 10:59:36;;;;;;;13.22;10.28;;;;;;;17.75;70.58;101387.56;1725515;82;21012;-82
2022/09/22 11:02:27;;;;;;;2.92;1.50;;;;;;;17.88;70.76;101385.66;1726341;82;21083;-91
2022/09/22 11:12:15;;;;;;;2.90;1.00;;;;;;;18.10;71.10;101379.61;1725306;82;21525;-83
2022/09/22 11:13:49;;;;;;;;;;;;;;;18.85;69.56;101370.23;1728904;82;21012;-83
2022/09/22 11:16:36;;;;;;;0.75;0.42;;;;;;;19.09;67.94;101383.05;1725962;82;21033;-84
2022/09/22 11:19:43;;;;;;;0.47;0.30;;;;;;;19.24;68.43;101373.36;1711239;82;21340;-83
2022/09/22 11:22:38;;;;;;;0.95;0.40;;;;;;;19.30;67.94;101370.34;1731840;82;21024;-83
2022/09/22 11:25:36;;;;;;;0.60;0.50;;;;;;;19.41;67.07;101369.72;1715069;82;21012;-81
2022/09/22 11:28:30;;;;;;;1.05;0.40;;;;;;;19.55;66.74;101365.28;1689861;84;21009;-85
2022/09/22 11:30:57;;;;;;;2.25;0.40;;;;;;;19.69;66.46;101365.83;1689301;84;21521;-83
2022/09/22 11:34:11;;;;;;;2.35;0.90;;;;;;;19.89;66.22;101355.31;1656380;86;21054;-85
2022/09/22 11:36:56;;;;;;;1.52;0.40;;;;;;;20.07;65.74;101361.80;1656405;86;21103;-83
2022/09/22 11:39:34;;;;;;;1.67;0.50;;;;;;;19.95;64.44;101352.74;1655943;86;21135;-83
2022/09/22 11:42:30;;;;;;;1.67;0.50;;;;;;;19.96;64.34;101351.34;1640344;87;21393;-83
2022/09/22 11:45:06;;;;;;;1.05;0.30;;;;;;;19.69;63.49;101351.68;1628597;88;21039;-83
2022/09/22 11:47:51;;;;;;;0.75;0.40;;;;;;;19.22;62.82;101348.19;1656442;86;21893;-81
2022/09/22 11:50:32;;;;;;;1.05;0.40;;;;;;;19.26;63.23;101346.20;1656532;86;21057;-80
2022/09/22 11:53:05;;;;;;;1.72;1.10;;;;;;;19.36;62.97;101346.05;1656632;86;21122;-83
2022/09/22 11:56:05;;;;;;;1.37;0.57;;;;;;;19.48;63.21;101334.71;1641556;87;21059;-83
2022/09/22 11:58:32;;;;;;;;;;;;;;;19.53;62.83;101331.75;1630992;87;21032;-83
2022/09/22 12:01:10;;;;;;;0.75;0.47;;;;;;;19.65;62.04;101336.36;1642583;87;21148;-86
2022/09/22 12:03:55;;;;;;;2.10;1.47;;;;;;;19.59;62.51;101333.59;1644946;86;21058;-82
2022/09/22 12:06:28;;;;;;;1.50;0.82;;;;;;;19.66;62.52;101325.27;1685849;84;21049;-87
2022/09/22 12:09:03;;;;;;;1.65;1.10;;;;;;;19.86;62.09;101327.56;1694169;84;21025;-82
2022/09/22 12:11:34;;;;;;;1.37;0.95;;;;;;;19.99;61.65;101329.00;1692965;84;21084;-82
2022/09/22 12:14:02;;;;;;;0.65;0.30;;;;;;;20.18;61.82;101329.57;1694166;84;21221;-81
2022/09/22 12:16:44;;;;;;;1.20;0.62;;;;;;;20.20;60.91;101326.80;1686939;84;21508;-83
2022/09/22 12:19:28;;;;;;;0.72;0.30;;;;;;;19.95;60.43;101324.36;1695645;82;20980;-81
2022/09/22 12:22:22;;;;;;;0.72;0.30;;;;;;;19.51;59.53;101326.55;1709247;82;21027;-82